DLH1805 LEMD-EDDM
Flight info
| Callsign | DLH1805 |
|---|---|
| Flight time | 1h 51m |
| Altitude | 38000 |
| Route | PINAR2U PINAR N870 SEGRE N871 TOPTU DCT TOU DCT GAI DCT MEN DCT NINUN DCT LATAM DCT ETREK DCT LTP DCT SOPLO DCT OMASI DCT KINNI DCT LAMUR DCT KORED/N0476F390 DCT NUNRI T103 BETOS BETOS1B |
| Aircraft | A346/H-SDE2E3FGHIJ3J4J5M1RWXY/LB1D1 |
Departure
| Time | 2026-05-07 17:33 |
|---|---|
| Airport | Adolfo Suárez Madrid–Barajas Airport (LEMD) |
Arrival
| Time | 2026-05-07 19:25 |
|---|---|
| Airport | Munich Airport (EDDM) |
| Time | Latitude | Longitude | Altitude | Speed | Heading |
|---|---|---|---|---|---|
| 2026-05-07 17:00 | 40.46126 | -3.57335 | 1989 ft | 0 kts | 316° |
| 2026-05-07 17:10 | 40.46124 | -3.57331 | 1989 ft | 3 kts | 315° |
| 2026-05-07 17:11 | 40.46108 | -3.57309 | 1992 ft | 4 kts | 316° |
| 2026-05-07 17:11 | 40.46090 | -3.57294 | 1990 ft | 4 kts | 346° |
| 2026-05-07 17:11 | 40.46074 | -3.57294 | 1990 ft | 4 kts | 27° |
| 2026-05-07 17:11 | 40.46055 | -3.57313 | 1989 ft | 4 kts | 45° |
| 2026-05-07 17:12 | 40.46040 | -3.57334 | 1989 ft | 2 kts | 45° |
| 2026-05-07 17:12 | 40.46039 | -3.57335 | 1989 ft | 0 kts | 45° |
| 2026-05-07 17:18 | 40.46047 | -3.57324 | 1988 ft | 3 kts | 45° |
| 2026-05-07 17:18 | 40.46074 | -3.57289 | 1989 ft | 6 kts | 51° |
| 2026-05-07 17:18 | 40.46085 | -3.57216 | 1992 ft | 10 kts | 106° |
| 2026-05-07 17:18 | 40.46033 | -3.57133 | 1990 ft | 14 kts | 135° |
| 2026-05-07 17:19 | 40.45959 | -3.57033 | 1991 ft | 17 kts | 133° |
| 2026-05-07 17:19 | 40.45868 | -3.56907 | 1993 ft | 20 kts | 133° |
| 2026-05-07 17:19 | 40.45805 | -3.56735 | 1989 ft | 22 kts | 94° |
| 2026-05-07 17:19 | 40.45847 | -3.56549 | 1990 ft | 23 kts | 28° |
| 2026-05-07 17:20 | 40.46015 | -3.56520 | 1989 ft | 25 kts | 0° |
| 2026-05-07 17:20 | 40.46195 | -3.56509 | 1991 ft | 27 kts | 3° |
| 2026-05-07 17:20 | 40.46386 | -3.56494 | 1990 ft | 28 kts | 3° |
| 2026-05-07 17:20 | 40.46633 | -3.56472 | 1991 ft | 30 kts | 4° |
| 2026-05-07 17:21 | 40.46871 | -3.56452 | 1990 ft | 31 kts | 3° |
| 2026-05-07 17:21 | 40.47093 | -3.56475 | 1991 ft | 31 kts | 340° |
| 2026-05-07 17:21 | 40.47272 | -3.56635 | 1991 ft | 32 kts | 321° |
| 2026-05-07 17:21 | 40.47449 | -3.56823 | 1991 ft | 32 kts | 321° |
| 2026-05-07 17:22 | 40.47631 | -3.57004 | 1991 ft | 33 kts | 323° |
| 2026-05-07 17:22 | 40.47814 | -3.57187 | 1991 ft | 33 kts | 322° |
| 2026-05-07 17:22 | 40.47998 | -3.57374 | 1991 ft | 34 kts | 322° |
| 2026-05-07 17:22 | 40.48185 | -3.57563 | 1991 ft | 34 kts | 322° |
| 2026-05-07 17:23 | 40.48372 | -3.57754 | 1993 ft | 34 kts | 322° |
| 2026-05-07 17:23 | 40.48575 | -3.57914 | 1991 ft | 34 kts | 339° |
| 2026-05-07 17:23 | 40.48747 | -3.57894 | 1991 ft | 14 kts | 83° |
| 2026-05-07 17:23 | 40.48762 | -3.57763 | 1989 ft | 16 kts | 86° |
| 2026-05-07 17:24 | 40.48764 | -3.57706 | 1990 ft | 17 kts | 88° |
| 2026-05-07 17:24 | 40.48766 | -3.57592 | 1992 ft | 14 kts | 89° |
| 2026-05-07 17:24 | 40.48766 | -3.57450 | 1992 ft | 17 kts | 90° |
| 2026-05-07 17:24 | 40.48766 | -3.57396 | 1992 ft | 0 kts | 90° |
| 2026-05-07 17:26 | 40.48766 | -3.57371 | 1992 ft | 5 kts | 90° |
| 2026-05-07 17:27 | 40.48766 | -3.57308 | 1992 ft | 9 kts | 90° |
| 2026-05-07 17:27 | 40.48765 | -3.57212 | 1992 ft | 12 kts | 90° |
| 2026-05-07 17:27 | 40.48765 | -3.57003 | 1992 ft | 30 kts | 90° |
| 2026-05-07 17:27 | 40.48768 | -3.56720 | 1992 ft | 31 kts | 90° |
| 2026-05-07 17:28 | 40.48769 | -3.56435 | 1992 ft | 31 kts | 90° |
| 2026-05-07 17:28 | 40.48771 | -3.56191 | 1991 ft | 12 kts | 77° |
| 2026-05-07 17:28 | 40.48848 | -3.56144 | 1989 ft | 15 kts | 358° |
| 2026-05-07 17:28 | 40.48964 | -3.56146 | 1989 ft | 18 kts | 0° |
| 2026-05-07 17:29 | 40.49102 | -3.56146 | 1992 ft | 21 kts | 0° |
| 2026-05-07 17:29 | 40.49254 | -3.56146 | 1989 ft | 23 kts | 0° |
| 2026-05-07 17:29 | 40.49409 | -3.56146 | 1991 ft | 10 kts | 0° |
| 2026-05-07 17:29 | 40.49436 | -3.56146 | 1992 ft | 5 kts | 0° |
| 2026-05-07 17:30 | 40.49485 | -3.56146 | 1992 ft | 8 kts | 0° |
| 2026-05-07 17:30 | 40.49508 | -3.56145 | 1991 ft | 0 kts | 6° |
| 2026-05-07 17:30 | 40.49516 | -3.56142 | 1991 ft | 2 kts | 15° |
| 2026-05-07 17:30 | 40.49537 | -3.56126 | 1991 ft | 5 kts | 40° |
| 2026-05-07 17:31 | 40.49549 | -3.56085 | 1991 ft | 6 kts | 80° |
| 2026-05-07 17:31 | 40.49555 | -3.56014 | 1992 ft | 9 kts | 89° |
| 2026-05-07 17:31 | 40.49550 | -3.55912 | 1990 ft | 13 kts | 103° |
| 2026-05-07 17:31 | 40.49504 | -3.55797 | 1991 ft | 16 kts | 132° |
| 2026-05-07 17:32 | 40.49487 | -3.55777 | 1991 ft | 1 kts | 142° |
| 2026-05-07 17:32 | 40.49472 | -3.55763 | 1991 ft | 4 kts | 142° |
| 2026-05-07 17:32 | 40.49467 | -3.55757 | 1991 ft | 8 kts | 142° |
| 2026-05-07 17:32 | 40.49346 | -3.55633 | 1991 ft | 58 kts | 142° |
| 2026-05-07 17:33 | 40.48581 | -3.54860 | 1991 ft | 145 kts | 142° |
| 2026-05-07 17:33 | 40.47658 | -3.53914 | 2158 ft | 182 kts | 141° |
| 2026-05-07 17:33 | 40.46624 | -3.52839 | 2774 ft | 194 kts | 140° |
| 2026-05-07 17:33 | 40.45582 | -3.51768 | 3753 ft | 186 kts | 141° |
| 2026-05-07 17:34 | 40.44546 | -3.50701 | 4491 ft | 194 kts | 142° |
| 2026-05-07 17:34 | 40.43475 | -3.49496 | 4983 ft | 210 kts | 134° |
| 2026-05-07 17:34 | 40.42669 | -3.47833 | 5441 ft | 227 kts | 108° |
| 2026-05-07 17:34 | 40.42743 | -3.45657 | 5829 ft | 254 kts | 68° |
| 2026-05-07 17:35 | 40.43789 | -3.43675 | 6384 ft | 274 kts | 50° |
| 2026-05-07 17:35 | 40.45074 | -3.41767 | 7117 ft | 283 kts | 49° |
| 2026-05-07 17:35 | 40.46407 | -3.39822 | 8057 ft | 287 kts | 49° |
| 2026-05-07 17:35 | 40.47743 | -3.37845 | 9030 ft | 292 kts | 49° |
| 2026-05-07 17:36 | 40.49093 | -3.35820 | 9940 ft | 297 kts | 49° |
| 2026-05-07 17:36 | 40.50467 | -3.33742 | 10712 ft | 307 kts | 49° |
| 2026-05-07 17:36 | 40.51905 | -3.31553 | 11315 ft | 325 kts | 49° |
| 2026-05-07 17:36 | 40.53422 | -3.29234 | 11873 ft | 345 kts | 49° |
| 2026-05-07 17:37 | 40.55032 | -3.26766 | 12442 ft | 364 kts | 49° |
| 2026-05-07 17:37 | 40.56727 | -3.24162 | 12993 ft | 383 kts | 49° |
| 2026-05-07 17:37 | 40.58501 | -3.21434 | 13614 ft | 398 kts | 49° |
| 2026-05-07 17:37 | 40.60316 | -3.18638 | 14445 ft | 404 kts | 49° |
| 2026-05-07 17:38 | 40.62163 | -3.15790 | 15370 ft | 408 kts | 49° |
| 2026-05-07 17:38 | 40.64019 | -3.12927 | 16249 ft | 414 kts | 49° |
| 2026-05-07 17:38 | 40.65901 | -3.10018 | 17096 ft | 419 kts | 49° |
| 2026-05-07 17:38 | 40.67803 | -3.07076 | 17970 ft | 425 kts | 49° |
| 2026-05-07 17:39 | 40.69731 | -3.04091 | 18720 ft | 430 kts | 49° |
| 2026-05-07 17:39 | 40.71667 | -3.01089 | 19441 ft | 435 kts | 49° |
| 2026-05-07 17:39 | 40.73655 | -2.98006 | 20177 ft | 441 kts | 49° |
| 2026-05-07 17:39 | 40.75659 | -2.94894 | 20925 ft | 445 kts | 49° |
| 2026-05-07 17:40 | 40.77672 | -2.91765 | 21659 ft | 450 kts | 49° |
| 2026-05-07 17:40 | 40.79708 | -2.88596 | 22388 ft | 455 kts | 49° |
| 2026-05-07 17:40 | 40.81771 | -2.85382 | 23108 ft | 460 kts | 49° |
| 2026-05-07 17:40 | 40.83853 | -2.82135 | 23677 ft | 464 kts | 49° |
| 2026-05-07 17:41 | 40.85942 | -2.78870 | 23905 ft | 466 kts | 49° |
| 2026-05-07 17:41 | 40.87329 | -2.76701 | 23919 ft | 466 kts | 49° |
| 2026-05-07 17:41 | 40.89424 | -2.73431 | 23917 ft | 465 kts | 49° |
| 2026-05-07 17:41 | 40.91508 | -2.70168 | 23920 ft | 464 kts | 49° |
| 2026-05-07 17:42 | 40.94275 | -2.65829 | 23918 ft | 464 kts | 50° |
| 2026-05-07 17:42 | 40.96372 | -2.62533 | 24113 ft | 473 kts | 50° |
| 2026-05-07 17:42 | 40.98484 | -2.59183 | 24813 ft | 473 kts | 51° |
| 2026-05-07 17:42 | 40.99784 | -2.56796 | 25309 ft | 473 kts | 57° |
| 2026-05-07 17:43 | 41.01359 | -2.52983 | 25917 ft | 477 kts | 66° |
| 2026-05-07 17:43 | 41.02507 | -2.48845 | 26452 ft | 482 kts | 74° |
| 2026-05-07 17:43 | 41.03185 | -2.44475 | 26980 ft | 486 kts | 83° |
| 2026-05-07 17:43 | 41.03441 | -2.39977 | 27527 ft | 491 kts | 86° |
| 2026-05-07 17:44 | 41.04185 | -2.35533 | 27946 ft | 498 kts | 68° |
| 2026-05-07 17:44 | 41.06002 | -2.31627 | 28452 ft | 500 kts | 47° |
| 2026-05-07 17:44 | 41.08660 | -2.28674 | 29228 ft | 494 kts | 32° |
| 2026-05-07 17:44 | 41.11552 | -2.26227 | 30079 ft | 492 kts | 31° |
| 2026-05-07 17:45 | 41.14450 | -2.23753 | 30636 ft | 495 kts | 32° |
| 2026-05-07 17:45 | 41.17291 | -2.21149 | 31235 ft | 497 kts | 33° |
| 2026-05-07 17:45 | 41.20039 | -2.18468 | 31933 ft | 495 kts | 34° |
| 2026-05-07 17:45 | 41.22775 | -2.15684 | 32710 ft | 493 kts | 34° |
| 2026-05-07 17:46 | 41.25463 | -2.12880 | 33477 ft | 490 kts | 34° |
| 2026-05-07 17:46 | 41.28127 | -2.10064 | 34182 ft | 488 kts | 34° |
| 2026-05-07 17:46 | 41.30802 | -2.07225 | 34738 ft | 487 kts | 34° |
| 2026-05-07 17:46 | 41.33448 | -2.04410 | 35252 ft | 488 kts | 35° |
| 2026-05-07 17:47 | 41.36116 | -2.01571 | 35698 ft | 490 kts | 36° |
| 2026-05-07 17:47 | 41.38776 | -1.98722 | 36120 ft | 491 kts | 36° |
| 2026-05-07 17:47 | 41.41458 | -1.95841 | 36521 ft | 493 kts | 36° |
| 2026-05-07 17:47 | 41.44132 | -1.92963 | 36874 ft | 496 kts | 36° |
| 2026-05-07 17:48 | 41.46790 | -1.90100 | 37199 ft | 499 kts | 36° |
| 2026-05-07 17:48 | 41.49498 | -1.87184 | 37500 ft | 502 kts | 36° |
| 2026-05-07 17:48 | 41.52222 | -1.84243 | 37789 ft | 505 kts | 36° |
| 2026-05-07 17:48 | 41.54974 | -1.81268 | 37931 ft | 508 kts | 36° |
| 2026-05-07 17:49 | 41.60484 | -1.75305 | 37922 ft | 508 kts | 37° |
| 2026-05-07 17:49 | 41.65983 | -1.69338 | 37924 ft | 509 kts | 37° |
| 2026-05-07 17:50 | 41.71450 | -1.63394 | 37916 ft | 508 kts | 37° |
| 2026-05-07 17:50 | 41.76958 | -1.57396 | 37929 ft | 508 kts | 37° |
| 2026-05-07 17:51 | 41.82452 | -1.51402 | 37914 ft | 508 kts | 37° |
| 2026-05-07 17:51 | 41.87937 | -1.45398 | 37911 ft | 508 kts | 37° |
| 2026-05-07 17:52 | 41.93382 | -1.39424 | 37908 ft | 507 kts | 37° |
| 2026-05-07 17:52 | 41.98850 | -1.33412 | 37919 ft | 507 kts | 37° |
| 2026-05-07 17:53 | 42.04307 | -1.27402 | 37907 ft | 507 kts | 37° |
| 2026-05-07 17:53 | 42.09769 | -1.21367 | 37911 ft | 507 kts | 37° |
| 2026-05-07 17:54 | 42.15226 | -1.15325 | 37914 ft | 507 kts | 38° |
| 2026-05-07 17:54 | 42.20630 | -1.09335 | 37915 ft | 504 kts | 38° |
| 2026-05-07 17:55 | 42.26064 | -1.03293 | 37918 ft | 504 kts | 38° |
| 2026-05-07 17:55 | 42.31469 | -0.97265 | 37922 ft | 504 kts | 38° |
| 2026-05-07 17:56 | 42.36844 | -0.91259 | 37930 ft | 504 kts | 38° |
| 2026-05-07 17:56 | 42.42077 | -0.84903 | 37941 ft | 506 kts | 44° |
| 2026-05-07 17:57 | 42.46017 | -0.79016 | 37939 ft | 507 kts | 50° |
| 2026-05-07 17:57 | 42.51059 | -0.70224 | 37941 ft | 507 kts | 52° |
| 2026-05-07 17:58 | 42.55374 | -0.62552 | 37949 ft | 508 kts | 52° |
| 2026-05-07 17:58 | 42.59672 | -0.54932 | 37959 ft | 508 kts | 52° |
| 2026-05-07 17:59 | 42.63967 | -0.47317 | 37959 ft | 507 kts | 52° |
| 2026-05-07 17:59 | 42.68271 | -0.39673 | 37958 ft | 506 kts | 52° |
| 2026-05-07 18:00 | 42.72527 | -0.32094 | 37960 ft | 506 kts | 52° |
| 2026-05-07 18:00 | 42.76801 | -0.24464 | 37961 ft | 506 kts | 52° |
| 2026-05-07 18:01 | 42.81128 | -0.16883 | 37953 ft | 506 kts | 50° |
| 2026-05-07 18:01 | 42.85597 | -0.09451 | 37962 ft | 506 kts | 50° |
| 2026-05-07 18:02 | 42.92318 | 0.01718 | 37938 ft | 507 kts | 50° |
| 2026-05-07 18:03 | 42.96799 | 0.09203 | 37957 ft | 509 kts | 50° |
| 2026-05-07 18:03 | 43.01272 | 0.16696 | 37947 ft | 509 kts | 50° |
| 2026-05-07 18:04 | 43.05710 | 0.24154 | 37946 ft | 508 kts | 50° |
| 2026-05-07 18:04 | 43.10177 | 0.31677 | 37941 ft | 508 kts | 50° |
| 2026-05-07 18:05 | 43.14629 | 0.39195 | 37922 ft | 508 kts | 50° |
| 2026-05-07 18:05 | 43.19092 | 0.46748 | 37924 ft | 509 kts | 50° |
| 2026-05-07 18:06 | 43.23521 | 0.54267 | 37927 ft | 509 kts | 50° |
| 2026-05-07 18:06 | 43.27965 | 0.61833 | 37921 ft | 508 kts | 50° |
| 2026-05-07 18:07 | 43.32454 | 0.69488 | 37926 ft | 518 kts | 50° |
| 2026-05-07 18:07 | 43.36981 | 0.77230 | 37912 ft | 519 kts | 50° |
| 2026-05-07 18:08 | 43.41526 | 0.85025 | 37918 ft | 522 kts | 51° |
| 2026-05-07 18:08 | 43.46039 | 0.92786 | 37925 ft | 520 kts | 51° |
| 2026-05-07 18:09 | 43.50558 | 1.00579 | 37920 ft | 520 kts | 51° |
| 2026-05-07 18:09 | 43.55071 | 1.08380 | 37918 ft | 520 kts | 51° |
| 2026-05-07 18:10 | 43.59585 | 1.16205 | 37913 ft | 520 kts | 51° |
| 2026-05-07 18:10 | 43.64075 | 1.24007 | 37926 ft | 521 kts | 51° |
| 2026-05-07 18:11 | 43.68577 | 1.31866 | 37924 ft | 521 kts | 52° |
| 2026-05-07 18:11 | 43.72918 | 1.39920 | 37922 ft | 521 kts | 53° |
| 2026-05-07 18:12 | 43.77204 | 1.48033 | 37922 ft | 521 kts | 53° |
| 2026-05-07 18:12 | 43.81470 | 1.56084 | 37914 ft | 522 kts | 53° |
| 2026-05-07 18:13 | 43.85779 | 1.64206 | 37920 ft | 522 kts | 53° |
| 2026-05-07 18:13 | 43.90086 | 1.72345 | 37928 ft | 522 kts | 53° |
| 2026-05-07 18:14 | 43.94375 | 1.80476 | 37927 ft | 522 kts | 53° |
| 2026-05-07 18:14 | 43.98593 | 1.88709 | 37934 ft | 522 kts | 55° |
| 2026-05-07 18:15 | 44.02710 | 1.97021 | 37931 ft | 523 kts | 55° |
| 2026-05-07 18:15 | 44.06832 | 2.05351 | 37936 ft | 522 kts | 55° |
| 2026-05-07 18:16 | 44.10960 | 2.13694 | 37932 ft | 522 kts | 55° |
| 2026-05-07 18:16 | 44.15062 | 2.21994 | 37940 ft | 522 kts | 55° |
| 2026-05-07 18:17 | 44.19190 | 2.30372 | 37934 ft | 522 kts | 55° |
| 2026-05-07 18:17 | 44.23305 | 2.38745 | 37947 ft | 523 kts | 56° |
| 2026-05-07 18:18 | 44.27412 | 2.47127 | 37944 ft | 523 kts | 56° |
| 2026-05-07 18:18 | 44.31494 | 2.55483 | 37951 ft | 522 kts | 56° |
| 2026-05-07 18:19 | 44.35592 | 2.63896 | 37949 ft | 523 kts | 56° |
| 2026-05-07 18:19 | 44.39686 | 2.72323 | 37961 ft | 523 kts | 56° |
| 2026-05-07 18:20 | 44.43776 | 2.80768 | 37947 ft | 523 kts | 56° |
| 2026-05-07 18:20 | 44.47826 | 2.89153 | 37942 ft | 523 kts | 56° |
| 2026-05-07 18:21 | 44.51902 | 2.97618 | 37946 ft | 523 kts | 56° |
| 2026-05-07 18:21 | 44.55965 | 3.06079 | 37932 ft | 523 kts | 56° |
| 2026-05-07 18:22 | 44.60015 | 3.14567 | 37942 ft | 523 kts | 57° |
| 2026-05-07 18:22 | 44.63718 | 3.23331 | 37944 ft | 523 kts | 60° |
| 2026-05-07 18:23 | 44.67273 | 3.32243 | 37945 ft | 523 kts | 61° |
| 2026-05-07 18:23 | 44.70828 | 3.41174 | 37950 ft | 523 kts | 61° |
| 2026-05-07 18:24 | 44.74393 | 3.50119 | 37955 ft | 523 kts | 61° |
| 2026-05-07 18:24 | 44.77946 | 3.59058 | 37954 ft | 523 kts | 61° |
| 2026-05-07 18:25 | 44.81495 | 3.68020 | 37954 ft | 523 kts | 61° |
| 2026-05-07 18:25 | 44.85043 | 3.77007 | 37950 ft | 523 kts | 61° |
| 2026-05-07 18:26 | 44.88552 | 3.85923 | 37956 ft | 523 kts | 61° |
| 2026-05-07 18:26 | 44.92086 | 3.94930 | 37953 ft | 523 kts | 61° |
| 2026-05-07 18:27 | 44.95606 | 4.03928 | 37957 ft | 523 kts | 61° |
| 2026-05-07 18:27 | 44.99120 | 4.12943 | 37956 ft | 523 kts | 61° |
| 2026-05-07 18:28 | 45.02623 | 4.21962 | 37952 ft | 523 kts | 61° |
| 2026-05-07 18:28 | 45.06122 | 4.31000 | 37963 ft | 523 kts | 61° |
| 2026-05-07 18:29 | 45.09604 | 4.40016 | 37970 ft | 524 kts | 61° |
| 2026-05-07 18:29 | 45.13089 | 4.49074 | 37957 ft | 523 kts | 61° |
| 2026-05-07 18:30 | 45.16568 | 4.58146 | 37973 ft | 523 kts | 62° |
| 2026-05-07 18:30 | 45.20034 | 4.67220 | 37959 ft | 523 kts | 62° |
| 2026-05-07 18:31 | 45.22915 | 4.74782 | 37968 ft | 523 kts | 62° |
| 2026-05-07 18:31 | 45.26375 | 4.83890 | 37964 ft | 523 kts | 62° |
| 2026-05-07 18:32 | 45.29826 | 4.93005 | 37968 ft | 522 kts | 62° |
| 2026-05-07 18:32 | 45.33260 | 5.02102 | 37973 ft | 522 kts | 62° |
| 2026-05-07 18:33 | 45.36668 | 5.11163 | 37977 ft | 523 kts | 62° |
| 2026-05-07 18:33 | 45.40104 | 5.20326 | 37975 ft | 523 kts | 62° |
| 2026-05-07 18:34 | 45.43528 | 5.29489 | 37978 ft | 523 kts | 61° |
| 2026-05-07 18:34 | 45.47277 | 5.38376 | 37977 ft | 522 kts | 55° |
| 2026-05-07 18:35 | 45.51681 | 5.46591 | 37964 ft | 521 kts | 48° |
| 2026-05-07 18:35 | 45.56708 | 5.54041 | 37968 ft | 520 kts | 41° |
| 2026-05-07 18:36 | 45.62098 | 5.60910 | 37962 ft | 519 kts | 39° |
| 2026-05-07 18:36 | 45.67497 | 5.67712 | 38117 ft | 523 kts | 40° |
| 2026-05-07 18:36 | 45.70219 | 5.71182 | 38540 ft | 521 kts | 40° |
| 2026-05-07 18:37 | 45.72388 | 5.73960 | 38830 ft | 520 kts | 40° |
| 2026-05-07 18:37 | 45.74931 | 5.77224 | 38947 ft | 520 kts | 40° |
| 2026-05-07 18:37 | 45.77618 | 5.80677 | 38946 ft | 519 kts | 40° |
| 2026-05-07 18:38 | 45.83034 | 5.87648 | 38962 ft | 519 kts | 40° |
| 2026-05-07 18:38 | 45.88406 | 5.94582 | 38947 ft | 519 kts | 40° |
| 2026-05-07 18:39 | 45.93811 | 6.01575 | 38949 ft | 520 kts | 40° |
| 2026-05-07 18:39 | 45.99187 | 6.08547 | 38950 ft | 520 kts | 40° |
| 2026-05-07 18:40 | 46.04548 | 6.15548 | 38956 ft | 520 kts | 41° |
| 2026-05-07 18:40 | 46.09546 | 6.23101 | 38979 ft | 521 kts | 49° |
| 2026-05-07 18:41 | 46.13944 | 6.31414 | 38978 ft | 522 kts | 54° |
| 2026-05-07 18:41 | 46.18132 | 6.40054 | 38966 ft | 522 kts | 54° |
| 2026-05-07 18:42 | 46.22283 | 6.48653 | 38977 ft | 522 kts | 54° |
| 2026-05-07 18:42 | 46.26455 | 6.57276 | 38980 ft | 522 kts | 54° |
| 2026-05-07 18:43 | 46.30599 | 6.65853 | 38983 ft | 522 kts | 54° |
| 2026-05-07 18:43 | 46.34758 | 6.74482 | 38991 ft | 522 kts | 54° |
| 2026-05-07 18:44 | 46.38908 | 6.83122 | 39001 ft | 522 kts | 54° |
| 2026-05-07 18:44 | 46.43064 | 6.91802 | 38994 ft | 523 kts | 54° |
| 2026-05-07 18:45 | 46.47236 | 7.00536 | 39001 ft | 523 kts | 54° |
| 2026-05-07 18:45 | 46.51380 | 7.09245 | 39003 ft | 523 kts | 54° |
| 2026-05-07 18:46 | 46.55959 | 7.17470 | 39005 ft | 521 kts | 44° |
| 2026-05-07 18:46 | 46.61404 | 7.24373 | 39004 ft | 517 kts | 33° |
| 2026-05-07 18:47 | 46.67543 | 7.29747 | 38992 ft | 513 kts | 23° |
| 2026-05-07 18:47 | 46.74037 | 7.34069 | 38996 ft | 512 kts | 20° |
| 2026-05-07 18:48 | 46.80264 | 7.39188 | 38985 ft | 517 kts | 33° |
| 2026-05-07 18:48 | 46.85599 | 7.46293 | 38977 ft | 522 kts | 47° |
| 2026-05-07 18:49 | 46.89763 | 7.55008 | 39005 ft | 524 kts | 60° |
| 2026-05-07 18:49 | 46.93053 | 7.64576 | 39022 ft | 524 kts | 63° |
| 2026-05-07 18:50 | 46.96225 | 7.74115 | 39010 ft | 523 kts | 63° |
| 2026-05-07 18:50 | 46.99431 | 7.83683 | 39009 ft | 522 kts | 63° |
| 2026-05-07 18:51 | 47.02655 | 7.93265 | 39004 ft | 522 kts | 63° |
| 2026-05-07 18:51 | 47.05877 | 8.02856 | 39012 ft | 522 kts | 63° |
| 2026-05-07 18:52 | 47.09058 | 8.12357 | 39001 ft | 522 kts | 63° |
| 2026-05-07 18:52 | 47.12252 | 8.21934 | 39016 ft | 520 kts | 63° |
| 2026-05-07 18:53 | 47.15435 | 8.31517 | 39022 ft | 521 kts | 63° |
| 2026-05-07 18:53 | 47.18615 | 8.41117 | 39021 ft | 522 kts | 63° |
| 2026-05-07 18:54 | 47.21792 | 8.50745 | 39011 ft | 522 kts | 63° |
| 2026-05-07 18:54 | 47.24954 | 8.60367 | 39009 ft | 522 kts | 63° |
| 2026-05-07 18:55 | 47.28118 | 8.70030 | 39002 ft | 522 kts | 63° |
| 2026-05-07 18:55 | 47.31279 | 8.79726 | 39008 ft | 523 kts | 63° |
| 2026-05-07 18:56 | 47.34445 | 8.89470 | 39010 ft | 523 kts | 63° |
| 2026-05-07 18:56 | 47.37569 | 8.99118 | 39015 ft | 523 kts | 64° |
| 2026-05-07 18:57 | 47.40714 | 9.08869 | 39020 ft | 523 kts | 64° |
| 2026-05-07 18:57 | 47.43888 | 9.18751 | 39040 ft | 523 kts | 64° |
| 2026-05-07 18:58 | 47.47009 | 9.28500 | 38890 ft | 520 kts | 64° |
| 2026-05-07 18:58 | 47.48523 | 9.33248 | 38624 ft | 512 kts | 64° |
| 2026-05-07 18:58 | 47.50063 | 9.38088 | 38231 ft | 506 kts | 64° |
| 2026-05-07 18:58 | 47.51606 | 9.42941 | 37732 ft | 503 kts | 64° |
| 2026-05-07 18:59 | 47.53092 | 9.47630 | 37211 ft | 501 kts | 64° |
| 2026-05-07 18:59 | 47.54594 | 9.52411 | 36605 ft | 500 kts | 65° |
| 2026-05-07 18:59 | 47.55882 | 9.57263 | 36001 ft | 500 kts | 70° |
| 2026-05-07 18:59 | 47.56889 | 9.62247 | 35392 ft | 501 kts | 75° |
| 2026-05-07 19:00 | 47.57591 | 9.67201 | 34797 ft | 502 kts | 80° |
| 2026-05-07 19:00 | 47.58022 | 9.72393 | 34171 ft | 503 kts | 85° |
| 2026-05-07 19:00 | 47.58155 | 9.77521 | 33388 ft | 506 kts | 90° |
| 2026-05-07 19:00 | 47.58020 | 9.82752 | 32689 ft | 505 kts | 93° |
| 2026-05-07 19:01 | 47.57795 | 9.87950 | 32087 ft | 503 kts | 94° |
| 2026-05-07 19:01 | 47.57553 | 9.93164 | 31446 ft | 502 kts | 94° |
| 2026-05-07 19:01 | 47.57318 | 9.98326 | 30783 ft | 501 kts | 93° |
| 2026-05-07 19:01 | 47.57090 | 10.03522 | 30112 ft | 501 kts | 93° |
| 2026-05-07 19:02 | 47.56463 | 10.18396 | 27976 ft | 497 kts | 93° |
| 2026-05-07 19:02 | 47.56244 | 10.23482 | 27503 ft | 490 kts | 93° |
| 2026-05-07 19:03 | 47.56024 | 10.28508 | 26971 ft | 486 kts | 94° |
| 2026-05-07 19:03 | 47.55844 | 10.33481 | 26344 ft | 480 kts | 90° |
| 2026-05-07 19:03 | 47.56395 | 10.38344 | 25628 ft | 475 kts | 69° |
| 2026-05-07 19:03 | 47.57894 | 10.42575 | 25151 ft | 466 kts | 56° |
| 2026-05-07 19:04 | 47.59685 | 10.46544 | 24572 ft | 460 kts | 54° |
| 2026-05-07 19:04 | 47.61491 | 10.50460 | 23935 ft | 458 kts | 54° |
| 2026-05-07 19:04 | 47.63244 | 10.54384 | 23458 ft | 452 kts | 55° |
| 2026-05-07 19:04 | 47.64930 | 10.58292 | 22944 ft | 446 kts | 56° |
| 2026-05-07 19:05 | 47.66570 | 10.62189 | 22451 ft | 441 kts | 57° |
| 2026-05-07 19:05 | 47.68186 | 10.66035 | 22000 ft | 439 kts | 55° |
| 2026-05-07 19:05 | 47.70027 | 10.69705 | 21744 ft | 444 kts | 50° |
| 2026-05-07 19:05 | 47.71978 | 10.73296 | 21475 ft | 443 kts | 49° |
| 2026-05-07 19:06 | 47.73929 | 10.76857 | 21230 ft | 442 kts | 49° |
| 2026-05-07 19:06 | 47.77773 | 10.83979 | 20698 ft | 439 kts | 50° |
| 2026-05-07 19:06 | 47.79666 | 10.87537 | 20452 ft | 437 kts | 50° |
| 2026-05-07 19:07 | 47.81520 | 10.91044 | 20207 ft | 436 kts | 50° |
| 2026-05-07 19:07 | 47.83387 | 10.94589 | 19955 ft | 434 kts | 51° |
| 2026-05-07 19:07 | 47.85248 | 10.98129 | 19706 ft | 433 kts | 51° |
| 2026-05-07 19:07 | 47.87106 | 11.01672 | 19465 ft | 432 kts | 51° |
| 2026-05-07 19:08 | 47.88953 | 11.05197 | 19216 ft | 430 kts | 51° |
| 2026-05-07 19:08 | 47.90804 | 11.08743 | 18971 ft | 430 kts | 50° |
| 2026-05-07 19:08 | 47.92638 | 11.12260 | 18733 ft | 429 kts | 50° |
| 2026-05-07 19:08 | 47.94480 | 11.15789 | 18493 ft | 428 kts | 50° |
| 2026-05-07 19:09 | 47.96309 | 11.19297 | 18243 ft | 427 kts | 50° |
| 2026-05-07 19:09 | 47.98134 | 11.22775 | 17939 ft | 422 kts | 50° |
| 2026-05-07 19:09 | 47.99904 | 11.26168 | 17342 ft | 419 kts | 50° |
| 2026-05-07 19:09 | 48.01692 | 11.29614 | 16647 ft | 418 kts | 50° |
| 2026-05-07 19:10 | 48.03466 | 11.33041 | 16036 ft | 415 kts | 51° |
| 2026-05-07 19:10 | 48.05224 | 11.36442 | 15431 ft | 412 kts | 51° |
| 2026-05-07 19:10 | 48.06966 | 11.39818 | 14846 ft | 409 kts | 51° |
| 2026-05-07 19:10 | 48.08715 | 11.43211 | 14278 ft | 407 kts | 51° |
| 2026-05-07 19:11 | 48.10433 | 11.46549 | 13702 ft | 403 kts | 51° |
| 2026-05-07 19:11 | 48.12150 | 11.49888 | 13096 ft | 400 kts | 51° |
| 2026-05-07 19:11 | 48.13843 | 11.53185 | 12494 ft | 396 kts | 51° |
| 2026-05-07 19:11 | 48.15525 | 11.56463 | 11896 ft | 393 kts | 51° |
| 2026-05-07 19:12 | 48.17185 | 11.59704 | 11346 ft | 389 kts | 51° |
| 2026-05-07 19:12 | 48.18804 | 11.62869 | 11078 ft | 387 kts | 51° |
| 2026-05-07 19:12 | 48.20455 | 11.66099 | 11069 ft | 389 kts | 51° |
| 2026-05-07 19:12 | 48.22110 | 11.69341 | 11068 ft | 389 kts | 51° |
| 2026-05-07 19:13 | 48.23757 | 11.72606 | 11065 ft | 389 kts | 53° |
| 2026-05-07 19:13 | 48.25055 | 11.76188 | 11063 ft | 391 kts | 67° |
| 2026-05-07 19:13 | 48.25800 | 11.80102 | 11065 ft | 392 kts | 80° |
| 2026-05-07 19:13 | 48.26155 | 11.84175 | 11070 ft | 392 kts | 84° |
| 2026-05-07 19:14 | 48.26436 | 11.88262 | 11071 ft | 392 kts | 84° |
| 2026-05-07 19:14 | 48.26706 | 11.92310 | 11001 ft | 386 kts | 84° |
| 2026-05-07 19:14 | 48.26978 | 11.96248 | 10438 ft | 383 kts | 84° |
| 2026-05-07 19:14 | 48.27264 | 12.00240 | 9761 ft | 384 kts | 84° |
| 2026-05-07 19:15 | 48.27553 | 12.04186 | 9435 ft | 373 kts | 84° |
| 2026-05-07 19:15 | 48.27835 | 12.07999 | 9193 ft | 361 kts | 84° |
| 2026-05-07 19:15 | 48.28108 | 12.11699 | 8972 ft | 349 kts | 83° |
| 2026-05-07 19:15 | 48.28371 | 12.15260 | 8433 ft | 335 kts | 83° |
| 2026-05-07 19:16 | 48.28623 | 12.18658 | 8003 ft | 317 kts | 83° |
| 2026-05-07 19:16 | 48.28860 | 12.21867 | 7652 ft | 300 kts | 83° |
| 2026-05-07 19:16 | 48.29301 | 12.24843 | 7199 ft | 287 kts | 63° |
| 2026-05-07 19:16 | 48.30479 | 12.27159 | 6764 ft | 273 kts | 34° |
| 2026-05-07 19:17 | 48.32128 | 12.28283 | 6470 ft | 252 kts | 6° |
| 2026-05-07 19:17 | 48.33816 | 12.28399 | 6206 ft | 236 kts | 349° |
| 2026-05-07 19:17 | 48.35260 | 12.27534 | 5990 ft | 216 kts | 315° |
| 2026-05-07 19:17 | 48.36130 | 12.25820 | 6010 ft | 200 kts | 298° |
| 2026-05-07 19:18 | 48.36757 | 12.24013 | 5984 ft | 190 kts | 291° |
| 2026-05-07 19:18 | 48.37149 | 12.22163 | 5981 ft | 187 kts | 280° |
| 2026-05-07 19:18 | 48.37290 | 12.20223 | 6012 ft | 186 kts | 271° |
| 2026-05-07 19:18 | 48.37268 | 12.18270 | 6052 ft | 186 kts | 268° |
| 2026-05-07 19:19 | 48.37205 | 12.16321 | 6043 ft | 183 kts | 266° |
| 2026-05-07 19:19 | 48.37112 | 12.14489 | 5985 ft | 170 kts | 265° |
| 2026-05-07 19:19 | 48.37000 | 12.12744 | 5747 ft | 164 kts | 264° |
| 2026-05-07 19:19 | 48.36880 | 12.11037 | 5514 ft | 164 kts | 264° |
| 2026-05-07 19:20 | 48.36751 | 12.09320 | 5308 ft | 165 kts | 263° |
| 2026-05-07 19:20 | 48.36617 | 12.07606 | 5089 ft | 165 kts | 263° |
| 2026-05-07 19:20 | 48.36483 | 12.05915 | 4876 ft | 165 kts | 263° |
| 2026-05-07 19:20 | 48.36345 | 12.04196 | 4654 ft | 165 kts | 263° |
| 2026-05-07 19:21 | 48.36206 | 12.02477 | 4415 ft | 165 kts | 263° |
| 2026-05-07 19:21 | 48.36067 | 12.00742 | 4217 ft | 172 kts | 263° |
| 2026-05-07 19:21 | 48.35922 | 11.98923 | 3975 ft | 174 kts | 263° |
| 2026-05-07 19:21 | 48.35781 | 11.97156 | 3719 ft | 165 kts | 264° |
| 2026-05-07 19:22 | 48.35649 | 11.95497 | 3477 ft | 154 kts | 264° |
| 2026-05-07 19:22 | 48.35525 | 11.93930 | 3243 ft | 149 kts | 264° |
| 2026-05-07 19:22 | 48.35406 | 11.92382 | 3002 ft | 148 kts | 265° |
| 2026-05-07 19:22 | 48.35289 | 11.90844 | 2816 ft | 148 kts | 265° |
| 2026-05-07 19:23 | 48.35169 | 11.89307 | 2683 ft | 148 kts | 264° |
| 2026-05-07 19:23 | 48.35040 | 11.87764 | 2496 ft | 148 kts | 264° |
| 2026-05-07 19:23 | 48.34908 | 11.86221 | 2274 ft | 148 kts | 264° |
| 2026-05-07 19:23 | 48.34782 | 11.84689 | 2070 ft | 147 kts | 265° |
| 2026-05-07 19:24 | 48.34673 | 11.83179 | 1877 ft | 147 kts | 265° |
| 2026-05-07 19:24 | 48.34560 | 11.81654 | 1674 ft | 147 kts | 265° |
| 2026-05-07 19:24 | 48.34448 | 11.80129 | 1473 ft | 146 kts | 265° |
| 2026-05-07 19:24 | 48.34355 | 11.78852 | 1468 ft | 91 kts | 263° |
| 2026-05-07 19:25 | 48.34308 | 11.78230 | 1475 ft | 37 kts | 264° |
| 2026-05-07 19:25 | 48.34338 | 11.77924 | 1467 ft | 23 kts | 293° |
| 2026-05-07 19:25 | 48.34370 | 11.77817 | 1469 ft | 0 kts | 294° |
| 2026-05-07 19:25 | 48.34373 | 11.77808 | 1472 ft | 2 kts | 294° |
| 2026-05-07 19:26 | 48.34384 | 11.77769 | 1474 ft | 6 kts | 294° |
| 2026-05-07 19:26 | 48.34412 | 11.77677 | 1466 ft | 12 kts | 294° |
| 2026-05-07 19:26 | 48.34456 | 11.77530 | 1466 ft | 16 kts | 300° |
| 2026-05-07 19:26 | 48.34558 | 11.77425 | 1464 ft | 20 kts | 357° |
| 2026-05-07 19:27 | 48.34638 | 11.77564 | 1466 ft | 9 kts | 84° |
| 2026-05-07 19:27 | 48.34642 | 11.77630 | 1473 ft | 7 kts | 83° |
| 2026-05-07 19:27 | 48.34650 | 11.77725 | 1467 ft | 11 kts | 83° |
| 2026-05-07 19:27 | 48.34661 | 11.77863 | 1475 ft | 16 kts | 83° |
| 2026-05-07 19:28 | 48.34676 | 11.78050 | 1475 ft | 20 kts | 83° |
| 2026-05-07 19:28 | 48.34694 | 11.78273 | 1471 ft | 23 kts | 83° |
| 2026-05-07 19:28 | 48.34712 | 11.78526 | 1466 ft | 26 kts | 84° |
| 2026-05-07 19:28 | 48.34732 | 11.78808 | 1473 ft | 28 kts | 84° |
| 2026-05-07 19:29 | 48.34755 | 11.79106 | 1469 ft | 22 kts | 83° |
| 2026-05-07 19:29 | 48.34774 | 11.79351 | 1469 ft | 25 kts | 83° |
| 2026-05-07 19:29 | 48.34785 | 11.79489 | 1466 ft | 0 kts | 79° |
| 2026-05-07 19:29 | 48.34786 | 11.79494 | 1469 ft | 0 kts | 79° |
| 2026-05-07 19:30 | 48.34786 | 11.79495 | 1469 ft | 0 kts | 79° |
| 2026-05-07 19:30 | 48.34787 | 11.79501 | 1471 ft | 2 kts | 78° |
| 2026-05-07 19:30 | 48.34795 | 11.79534 | 1468 ft | 4 kts | 49° |
| 2026-05-07 19:30 | 48.34830 | 11.79552 | 1473 ft | 6 kts | 2° |
| 2026-05-07 19:31 | 48.34889 | 11.79546 | 1473 ft | 10 kts | 355° |
| 2026-05-07 19:31 | 48.34909 | 11.79543 | 1466 ft | 3 kts | 354° |
| 2026-05-07 19:31 | 48.34919 | 11.79542 | 1466 ft | 1 kts | 354° |
| 2026-05-07 19:31 | 48.34942 | 11.79539 | 1472 ft | 5 kts | 354° |
| 2026-05-07 19:32 | 48.34992 | 11.79531 | 1473 ft | 2 kts | 354° |
| 2026-05-07 19:32 | 48.34999 | 11.79530 | 1471 ft | 2 kts | 354° |
| 2026-05-07 19:32 | 48.35028 | 11.79526 | 1464 ft | 6 kts | 354° |
| 2026-05-07 19:32 | 48.35084 | 11.79517 | 1466 ft | 10 kts | 354° |
| 2026-05-07 19:33 | 48.35167 | 11.79504 | 1473 ft | 14 kts | 354° |
| 2026-05-07 19:33 | 48.35283 | 11.79485 | 1471 ft | 18 kts | 354° |
| 2026-05-07 19:33 | 48.35389 | 11.79467 | 1473 ft | 16 kts | 353° |
| 2026-05-07 19:33 | 48.35485 | 11.79450 | 1471 ft | 11 kts | 353° |
| 2026-05-07 19:34 | 48.35538 | 11.79440 | 1472 ft | 9 kts | 353° |
| 2026-05-07 19:34 | 48.35566 | 11.79436 | 1465 ft | 3 kts | 353° |
| 2026-05-07 19:34 | 48.35593 | 11.79424 | 1470 ft | 5 kts | 319° |
| 2026-05-07 19:34 | 48.35597 | 11.79374 | 1469 ft | 6 kts | 257° |
| 2026-05-07 19:35 | 48.35595 | 11.79358 | 1475 ft | 1 kts | 262° |